Time;durP1;ratioP1;P1;durP2;ratioP2;P2;SDS_P1;SDS_P2;PMS_P1;PMS_P2;Temp;Humidity;BMP_temperature;BMP_pressure;BME280_temperature;BME280_humidity;BME280_pressure;Samples;Min_cycle;Max_cycle;Signal;HPM_P1;HPM_P2
2024/02/28 00:01:16;;;;;;;7.05;2.25;;;11.40;86.40;;;;;;5006803;28;113046;-51
2024/02/28 00:03:42;;;;;;;3.40;2.20;;;11.40;86.60;;;;;;5007806;28;112602;-51
2024/02/28 00:06:07;;;;;;;3.83;1.80;;;11.40;86.40;;;;;;5007999;28;112704;-52
2024/02/28 00:08:33;;;;;;;5.95;1.98;;;11.40;86.60;;;;;;5006749;28;113222;-51
2024/02/28 00:10:59;;;;;;;7.57;2.13;;;11.30;86.30;;;;;;5006787;28;114377;-51
2024/02/28 00:13:24;;;;;;;7.38;2.00;;;11.40;86.30;;;;;;5008035;28;112628;-52
2024/02/28 00:15:50;;;;;;;4.90;2.20;;;11.40;86.30;;;;;;4994079;28;113704;-52
2024/02/28 00:18:16;;;;;;;5.70;1.73;;;11.40;86.40;;;;;;5006885;28;113122;-51
2024/02/28 00:20:44;;;;;;;6.95;2.20;;;11.40;86.20;;;;;;5006569;28;113869;-51
2024/02/28 00:23:10;;;;;;;5.47;2.03;;;11.40;86.40;;;;;;5007380;28;112813;-51
2024/02/28 00:25:35;;;;;;;6.65;2.40;;;11.40;86.00;;;;;;5010621;28;112738;-51
2024/02/28 00:28:01;;;;;;;6.53;2.20;;;11.40;86.10;;;;;;5010379;28;113738;-51
2024/02/28 00:30:28;;;;;;;6.30;2.17;;;11.40;86.10;;;;;;5010198;28;113666;-51
2024/02/28 00:32:54;;;;;;;5.88;2.30;;;11.40;85.70;;;;;;5011170;28;112577;-51
2024/02/28 00:35:20;;;;;;;6.30;2.20;;;11.40;86.10;;;;;;5011447;28;112749;-51
2024/02/28 00:37:45;;;;;;;6.63;2.40;;;11.40;86.30;;;;;;5008508;28;113170;-51
2024/02/28 00:40:12;;;;;;;7.25;2.33;;;11.40;86.60;;;;;;5007315;28;116202;-51
2024/02/28 00:42:37;;;;;;;3.53;2.10;;;11.40;86.70;;;;;;5009987;28;112511;-51
2024/02/28 00:45:04;;;;;;;4.53;1.98;;;11.40;86.60;;;;;;5010391;28;112632;-52
2024/02/28 00:47:29;;;;;;;4.47;2.20;;;11.40;86.50;;;;;;5008441;28;114737;-52
2024/02/28 00:49:55;;;;;;;4.75;2.33;;;11.40;86.30;;;;;;5007797;28;113053;-51
2024/02/28 00:52:21;;;;;;;5.22;2.13;;;11.40;86.30;;;;;;5009316;28;112592;-51
2024/02/28 00:54:46;;;;;;;4.22;2.25;;;11.40;86.40;;;;;;5009661;28;113210;-51
2024/02/28 00:57:12;;;;;;;5.32;2.35;;;11.30;86.60;;;;;;5008652;28;113277;-52
2024/02/28 00:59:38;;;;;;;6.75;2.80;;;11.30;86.70;;;;;;5008696;28;113119;-51
2024/02/28 01:02:03;;;;;;;5.60;2.20;;;11.30;86.80;;;;;;5009099;28;112758;-52
2024/02/28 01:04:29;;;;;;;4.68;2.30;;;11.30;86.70;;;;;;5009416;28;112803;-52
2024/02/28 01:06:55;;;;;;;5.47;2.67;;;11.30;87.00;;;;;;5008263;28;113886;-51
2024/02/28 01:09:22;;;;;;;8.57;2.50;;;11.40;86.80;;;;;;5008422;28;112923;-51
2024/02/28 01:11:47;;;;;;;11.13;3.60;;;11.40;87.00;;;;;;5009309;28;112469;-52
2024/02/28 01:14:13;;;;;;;4.75;2.38;;;11.40;87.00;;;;;;5007295;28;112635;-51
2024/02/28 01:16:39;;;;;;;4.80;2.30;;;11.40;86.90;;;;;;4996098;28;114533;-51
2024/02/28 01:19:04;;;;;;;10.50;2.60;;;11.40;87.00;;;;;;5008530;28;112961;-51
2024/02/28 01:21:30;;;;;;;7.38;2.50;;;11.40;87.10;;;;;;4980928;28;112491;-52
2024/02/28 01:23:55;;;;;;;5.32;2.45;;;11.40;87.00;;;;;;5009187;28;112780;-51
2024/02/28 01:26:22;;;;;;;8.02;2.30;;;11.40;87.10;;;;;;5007847;28;113636;-52
2024/02/28 01:28:48;;;;;;;5.57;2.45;;;11.40;87.10;;;;;;5008229;28;112684;-52
2024/02/28 01:31:14;;;;;;;7.05;2.58;;;11.40;87.10;;;;;;5008922;28;113085;-51
2024/02/28 01:33:40;;;;;;;4.53;2.20;;;11.40;87.20;;;;;;5009195;28;112777;-51
2024/02/28 01:36:09;;;;;;;5.63;2.63;;;11.50;87.00;;;;;;5006580;28;115022;-51
2024/02/28 01:38:35;;;;;;;9.18;2.50;;;11.40;86.80;;;;;;5007697;28;113390;-52
2024/02/28 01:41:00;;;;;;;5.53;2.17;;;11.50;86.90;;;;;;5008971;28;112888;-51
2024/02/28 01:43:26;;;;;;;9.27;4.57;;;11.60;87.00;;;;;;5009047;28;113930;-52
2024/02/28 01:45:52;;;;;;;10.18;5.03;;;11.60;86.70;;;;;;5008475;28;113212;-52
2024/02/28 01:48:17;;;;;;;8.88;3.08;;;11.60;86.60;;;;;;5007896;28;112728;-52
2024/02/28 01:50:43;;;;;;;6.70;2.67;;;11.60;86.50;;;;;;5008071;28;112775;-52
2024/02/28 01:53:11;;;;;;;4.97;2.05;;;11.60;86.40;;;;;;5008822;28;112720;-51
2024/02/28 01:55:37;;;;;;;6.05;2.40;;;11.60;86.40;;;;;;5007956;28;113213;-51
2024/02/28 01:58:07;;;;;;;10.20;2.80;;;11.60;86.60;;;;;;5007706;28;112840;-51
2024/02/28 02:00:33;;;;;;;4.22;2.35;;;11.60;86.50;;;;;;5008530;28;112572;-52
2024/02/28 02:03:01;;;;;;;7.35;2.40;;;11.60;86.90;;;;;;5008630;28;112924;-52
2024/02/28 02:05:26;;;;;;;6.40;2.53;;;11.60;86.60;;;;;;5007244;28;113245;-51
2024/02/28 02:07:53;;;;;;;5.18;2.58;;;11.60;86.40;;;;;;5007615;28;112679;-51
2024/02/28 02:10:19;;;;;;;6.65;2.75;;;11.60;86.40;;;;;;5008095;28;112786;-51
2024/02/28 02:12:44;;;;;;;7.75;2.75;;;11.60;86.60;;;;;;5008389;28;112804;-52
2024/02/28 02:15:10;;;;;;;4.78;2.38;;;11.60;86.40;;;;;;4997242;28;114667;-51
2024/02/28 02:17:36;;;;;;;5.55;2.70;;;11.60;86.50;;;;;;5002751;28;113840;-51
2024/02/28 02:20:03;;;;;;;6.93;2.90;;;11.60;86.70;;;;;;5008110;28;112674;-51
2024/02/28 02:22:38;;;;;;;9.25;2.85;;;11.60;86.40;;;;;;5008313;28;113106;-51
2024/02/28 02:25:05;;;;;;;6.18;2.75;;;11.60;86.80;;;;;;5007417;28;113737;-52
2024/02/28 02:27:30;;;;;;;5.07;2.42;;;11.60;86.60;;;;;;5006742;28;113857;-51
2024/02/28 02:29:56;;;;;;;6.72;1.92;;;11.60;86.40;;;;;;5008001;28;113096;-51
2024/02/28 02:32:22;;;;;;;5.70;2.42;;;11.50;86.20;;;;;;5008347;28;112987;-51
2024/02/28 02:34:47;;;;;;;5.20;2.10;;;11.50;86.30;;;;;;5007081;28;113163;-51
2024/02/28 02:37:13;;;;;;;6.18;2.25;;;11.50;86.20;;;;;;5005580;28;114562;-52
2024/02/28 02:39:39;;;;;;;5.85;2.28;;;11.50;86.30;;;;;;5007673;28;112822;-51
2024/02/28 02:42:04;;;;;;;4.90;2.33;;;11.50;86.60;;;;;;5008164;28;113099;-51
2024/02/28 02:44:30;;;;;;;4.18;2.15;;;11.50;86.80;;;;;;5007039;28;113338;-51
2024/02/28 02:46:56;;;;;;;9.20;2.17;;;11.40;86.70;;;;;;5007041;28;113062;-51
2024/02/28 02:49:21;;;;;;;8.75;2.58;;;11.50;86.50;;;;;;5007897;28;112434;-52
2024/02/28 02:51:47;;;;;;;7.53;2.67;;;11.50;86.60;;;;;;5007612;28;112796;-52
2024/02/28 02:54:13;;;;;;;8.32;2.35;;;11.40;86.70;;;;;;5006902;28;113361;-52
2024/02/28 02:56:42;;;;;;;4.47;2.08;;;11.50;86.50;;;;;;5006717;28;113091;-51
2024/02/28 02:59:09;;;;;;;6.40;2.20;;;11.40;86.70;;;;;;5007473;28;112562;-52
2024/02/28 03:01:35;;;;;;;6.50;2.30;;;11.40;86.30;;;;;;5007530;28;112875;-51
2024/02/28 03:04:00;;;;;;;6.03;2.30;;;11.40;86.40;;;;;;5006600;28;114358;-52
2024/02/28 03:06:26;;;;;;;6.75;2.78;;;11.30;87.60;;;;;;5006267;28;114507;-51
2024/02/28 03:08:52;;;;;;;7.35;2.22;;;11.30;87.40;;;;;;5007160;28;112618;-51
2024/02/28 03:11:17;;;;;;;4.38;2.25;;;11.30;87.30;;;;;;5007915;28;112703;-51
2024/02/28 03:13:43;;;;;;;6.88;2.10;;;11.30;87.30;;;;;;5006436;28;113206;-51
2024/02/28 03:16:09;;;;;;;5.63;2.45;;;11.30;87.30;;;;;;4991979;28;114276;-51
2024/02/28 03:18:34;;;;;;;7.38;2.65;;;11.30;87.50;;;;;;5007382;28;112843;-51
2024/02/28 03:21:00;;;;;;;4.88;2.20;;;11.30;87.70;;;;;;4996554;28;112655;-51
2024/02/28 03:23:26;;;;;;;6.93;2.58;;;11.30;87.70;;;;;;4985998;28;116260;-52
2024/02/28 03:25:51;;;;;;;5.55;2.20;;;11.20;87.80;;;;;;4990021;28;113397;-52
2024/02/28 03:28:17;;;;;;;7.00;2.40;;;11.30;87.60;;;;;;5002343;28;112977;-51
2024/02/28 03:30:43;;;;;;;6.50;2.67;;;11.30;87.90;;;;;;4993450;28;113060;-51
2024/02/28 03:33:09;;;;;;;5.70;2.55;;;11.20;87.90;;;;;;4992614;28;113950;-51
2024/02/28 03:35:35;;;;;;;5.43;2.65;;;11.30;88.10;;;;;;5006219;28;112626;-51
2024/02/28 03:38:00;;;;;;;7.30;2.80;;;11.20;88.20;;;;;;5003160;28;112462;-52
2024/02/28 03:40:26;;;;;;;6.65;2.40;;;11.30;88.20;;;;;;4996561;28;112711;-51
2024/02/28 03:42:52;;;;;;;5.18;2.30;;;11.30;88.20;;;;;;5005838;28;113740;-51
2024/02/28 03:45:20;;;;;;;6.68;2.90;;;11.30;88.30;;;;;;5006372;28;112739;-56
2024/02/28 03:47:46;;;;;;;8.55;3.00;;;11.30;88.10;;;;;;5005441;28;113071;-51
2024/02/28 03:50:11;;;;;;;6.97;2.88;;;11.30;88.30;;;;;;5006778;28;112729;-51
2024/02/28 03:52:37;;;;;;;6.20;2.80;;;11.30;88.40;;;;;;5005908;28;114458;-52
2024/02/28 03:55:03;;;;;;;5.90;3.05;;;11.30;88.20;;;;;;5002048;28;114107;-51
2024/02/28 03:57:29;;;;;;;5.13;2.55;;;11.40;88.30;;;;;;4995038;28;112721;-51
2024/02/28 03:59:54;;;;;;;7.03;2.80;;;11.30;88.30;;;;;;5006229;28;112701;-52
2024/02/28 04:02:20;;;;;;;8.35;2.90;;;11.30;88.40;;;;;;5004263;28;114896;-51
2024/02/28 04:04:45;;;;;;;9.55;3.40;;;11.40;88.30;;;;;;5005574;28;113085;-52
2024/02/28 04:07:11;;;;;;;6.93;3.47;;;11.30;88.60;;;;;;5006381;28;113050;-52
2024/02/28 04:09:37;;;;;;;7.35;3.20;;;11.30;88.40;;;;;;5006829;28;113017;-52
2024/02/28 04:12:03;;;;;;;7.75;3.40;;;11.30;88.60;;;;;;5005665;28;113251;-52
2024/02/28 04:14:28;;;;;;;8.98;3.38;;;11.40;88.50;;;;;;5005785;28;112957;-52
2024/02/28 04:16:54;;;;;;;5.57;3.03;;;11.40;88.50;;;;;;5006291;28;112558;-51
2024/02/28 04:19:20;;;;;;;10.95;3.10;;;11.40;88.40;;;;;;5006737;28;112717;-52
2024/02/28 04:21:45;;;;;;;7.65;3.67;;;11.40;88.30;;;;;;5005830;28;113280;-52
2024/02/28 04:24:11;;;;;;;8.77;3.38;;;11.40;88.30;;;;;;5005410;28;112830;-52
2024/02/28 04:26:37;;;;;;;9.50;3.53;;;11.40;88.40;;;;;;5004625;28;112665;-51
2024/02/28 04:29:04;;;;;;;9.05;3.78;;;11.40;88.50;;;;;;5002125;28;112800;-51
2024/02/28 04:31:31;;;;;;;10.07;3.75;;;11.40;88.60;;;;;;4993925;28;114284;-51
2024/02/28 04:33:56;;;;;;;9.23;4.03;;;11.40;88.60;;;;;;5005483;28;112774;-52
2024/02/28 04:36:22;;;;;;;9.07;3.78;;;11.40;88.40;;;;;;5006191;28;112951;-51
2024/02/28 04:38:48;;;;;;;11.23;4.60;;;11.40;88.60;;;;;;5006626;28;112874;-52
2024/02/28 04:41:13;;;;;;;6.05;3.75;;;11.40;88.60;;;;;;5005217;28;113281;-51
2024/02/28 04:43:40;;;;;;;7.25;3.30;;;11.30;88.70;;;;;;5004934;28;113944;-52
2024/02/28 04:46:05;;;;;;;8.93;3.70;;;11.40;88.60;;;;;;5006656;28;113161;-52
2024/02/28 04:48:31;;;;;;;8.25;4.10;;;11.30;88.70;;;;;;5006318;28;113195;-51
2024/02/28 04:50:57;;;;;;;8.50;4.07;;;11.40;88.70;;;;;;5005085;28;113245;-52
2024/02/28 04:53:23;;;;;;;8.43;4.00;;;11.40;88.60;;;;;;5005075;28;112457;-51
2024/02/28 04:55:48;;;;;;;5.43;3.80;;;11.40;88.70;;;;;;5006206;28;112744;-51
2024/02/28 04:58:14;;;;;;;9.18;3.90;;;11.40;88.70;;;;;;5006000;28;112647;-52
2024/02/28 05:00:40;;;;;;;5.40;3.65;;;11.40;88.90;;;;;;5005217;28;113671;-52
2024/02/28 05:03:05;;;;;;;8.75;4.05;;;11.40;89.00;;;;;;5004897;28;112963;-52
2024/02/28 05:05:31;;;;;;;7.53;4.18;;;11.40;88.90;;;;;;5004136;28;113156;-52
2024/02/28 05:07:57;;;;;;;8.48;4.07;;;11.40;88.80;;;;;;5005911;28;113601;-52
2024/02/28 05:10:22;;;;;;;6.55;4.15;;;11.40;88.80;;;;;;5005117;28;114340;-51
2024/02/28 05:12:48;;;;;;;5.68;3.67;;;11.40;88.80;;;;;;5008213;28;112854;-51
2024/02/28 05:15:14;;;;;;;7.63;4.50;;;11.40;88.90;;;;;;5009195;28;112864;-52
2024/02/28 05:17:40;;;;;;;7.10;4.10;;;11.40;89.00;;;;;;5009181;28;113042;-51
2024/02/28 05:20:06;;;;;;;10.38;4.63;;;11.40;88.80;;;;;;5008168;28;113242;-51
2024/02/28 05:22:32;;;;;;;10.75;5.20;;;11.40;88.90;;;;;;5008499;28;113039;-51
2024/02/28 05:24:57;;;;;;;7.68;4.22;;;11.40;89.00;;;;;;5009106;28;112774;-52
2024/02/28 05:27:23;;;;;;;8.80;4.40;;;11.40;89.00;;;;;;5009286;28;112647;-51
2024/02/28 05:29:49;;;;;;;8.38;4.07;;;11.40;89.00;;;;;;4999560;28;113400;-52
2024/02/28 05:32:16;;;;;;;5.28;3.70;;;11.40;88.80;;;;;;5002607;28;114200;-52
2024/02/28 05:34:42;;;;;;;10.80;4.07;;;11.50;88.90;;;;;;5009316;28;112627;-51
2024/02/28 05:37:08;;;;;;;7.55;3.92;;;11.50;88.80;;;;;;5008990;28;112804;-51
2024/02/28 05:39:34;;;;;;;7.40;3.45;;;11.50;88.80;;;;;;5006335;28;115356;-52
2024/02/28 05:42:00;;;;;;;8.82;4.03;;;11.40;89.10;;;;;;5007538;28;113883;-52
2024/02/28 05:44:25;;;;;;;8.38;4.20;;;11.50;89.20;;;;;;5008636;28;112868;-52
2024/02/28 05:46:51;;;;;;;8.38;4.28;;;11.40;89.20;;;;;;5009391;28;112926;-51
2024/02/28 05:49:17;;;;;;;10.00;4.63;;;11.50;89.20;;;;;;5007552;28;113225;-52
2024/02/28 05:51:42;;;;;;;10.15;4.40;;;11.50;89.20;;;;;;5007872;28;112956;-51
2024/02/28 05:54:08;;;;;;;8.45;4.25;;;11.40;89.20;;;;;;5008770;28;112905;-52
2024/02/28 05:56:33;;;;;;;7.25;4.07;;;11.40;89.40;;;;;;5008633;28;112726;-51
2024/02/28 05:58:59;;;;;;;7.90;4.38;;;11.40;89.40;;;;;;4996250;28;114685;-51
2024/02/28 06:01:25;;;;;;;8.23;4.10;;;11.50;89.50;;;;;;4995367;28;112874;-52
2024/02/28 06:03:51;;;;;;;7.35;4.30;;;11.50;89.40;;;;;;4988414;28;112778;-51
2024/02/28 06:06:17;;;;;;;7.05;3.92;;;11.50;89.40;;;;;;4988189;28;112693;-52
2024/02/28 06:08:43;;;;;;;8.25;4.20;;;11.50;89.30;;;;;;4985840;28;115944;-52
2024/02/28 06:11:09;;;;;;;8.63;3.78;;;11.60;89.20;;;;;;4987346;28;112857;-52
2024/02/28 06:13:36;;;;;;;6.40;3.65;;;11.60;89.20;;;;;;4988215;28;112882;-51
2024/02/28 06:16:03;;;;;;;8.07;3.80;;;11.60;89.20;;;;;;4996313;28;113231;-51
2024/02/28 06:18:33;;;;;;;6.65;3.53;;;11.60;89.00;;;;;;4987163;28;113359;-52
2024/02/28 06:20:59;;;;;;;7.45;3.88;;;11.60;89.30;;;;;;4985556;28;113032;-52
2024/02/28 06:23:25;;;;;;;7.25;3.50;;;11.60;89.30;;;;;;4984982;28;112768;-51
2024/02/28 06:25:50;;;;;;;8.98;3.65;;;11.60;89.20;;;;;;4987134;28;112725;-52
2024/02/28 06:28:16;;;;;;;6.68;3.63;;;11.60;89.00;;;;;;4986588;28;113197;-52
2024/02/28 06:30:45;;;;;;;5.22;2.83;;;11.60;89.10;;;;;;4988370;28;113216;-52
2024/02/28 06:33:12;;;;;;;5.82;3.42;;;11.60;89.10;;;;;;5007302;28;112774;-52
2024/02/28 06:35:37;;;;;;;9.02;3.50;;;11.60;89.10;;;;;;5007823;28;113040;-52
2024/02/28 06:38:03;;;;;;;8.65;3.80;;;11.60;89.10;;;;;;5006927;28;113108;-52
2024/02/28 06:40:29;;;;;;;9.55;3.63;;;11.60;89.30;;;;;;5007001;28;112950;-52
2024/02/28 06:42:55;;;;;;;6.47;3.80;;;11.50;89.40;;;;;;5007558;28;112906;-52
2024/02/28 06:45:20;;;;;;;9.00;3.75;;;11.50;89.40;;;;;;5007964;28;112883;-52
2024/02/28 06:47:47;;;;;;;7.80;3.75;;;11.60;89.30;;;;;;5007338;28;113284;-52
2024/02/28 06:50:12;;;;;;;6.95;3.80;;;11.60;89.30;;;;;;5006808;28;112915;-52
2024/02/28 06:52:38;;;;;;;5.47;3.60;;;11.60;89.30;;;;;;5007012;28;112638;-52
2024/02/28 06:55:09;;;;;;;7.63;3.75;;;11.60;89.30;;;;;;5007797;28;112635;-52
2024/02/28 06:57:36;;;;;;;5.37;3.47;;;11.60;89.30;;;;;;5006577;28;114443;-52
2024/02/28 07:00:03;;;;;;;8.02;3.85;;;11.70;89.20;;;;;;5006584;28;114156;-52
2024/02/28 07:02:28;;;;;;;6.57;3.55;;;11.70;89.00;;;;;;5007670;28;112742;-52
2024/02/28 07:04:54;;;;;;;7.43;4.40;;;11.80;89.00;;;;;;5007623;28;112747;-52
2024/02/28 07:07:20;;;;;;;9.98;3.97;;;11.70;88.90;;;;;;5006387;28;113268;-52
2024/02/28 07:09:45;;;;;;;7.25;4.22;;;11.70;89.00;;;;;;5006444;28;113245;-52
2024/02/28 07:12:11;;;;;;;6.57;3.80;;;11.70;89.00;;;;;;5007337;28;112533;-52
2024/02/28 07:14:37;;;;;;;9.95;3.65;;;11.70;89.00;;;;;;5007529;28;112740;-52
2024/02/28 07:17:03;;;;;;;5.75;3.65;;;11.70;89.10;;;;;;5006620;28;113187;-52
2024/02/28 07:19:29;;;;;;;10.52;3.55;;;11.60;89.20;;;;;;5006268;28;112991;-52
2024/02/28 07:21:54;;;;;;;8.10;3.95;;;11.70;89.10;;;;;;5006807;28;112853;-52
2024/02/28 07:24:20;;;;;;;7.25;3.50;;;11.80;89.00;;;;;;5007315;28;112800;-52
2024/02/28 07:26:46;;;;;;;6.38;3.30;;;11.80;88.80;;;;;;5005951;28;113217;-52
2024/02/28 07:29:12;;;;;;;6.72;3.40;;;11.80;88.80;;;;;;5002664;28;112661;-52
2024/02/28 07:31:37;;;;;;;7.15;3.17;;;11.80;88.60;;;;;;4997031;28;112567;-52
2024/02/28 07:34:04;;;;;;;5.55;3.92;;;11.90;88.60;;;;;;5006547;28;112680;-52
2024/02/28 07:36:30;;;;;;;6.72;3.65;;;11.90;88.50;;;;;;5005821;28;114496;-52
2024/02/28 07:38:56;;;;;;;4.47;2.80;;;11.90;88.60;;;;;;5006120;28;112777;-52
2024/02/28 07:41:22;;;;;;;6.43;2.55;;;11.90;88.30;;;;;;5006920;28;113151;-52
2024/02/28 07:43:47;;;;;;;5.55;2.60;;;11.90;88.40;;;;;;5007114;28;112777;-52
2024/02/28 07:46:13;;;;;;;4.47;2.28;;;11.90;88.50;;;;;;5006403;28;113374;-52
2024/02/28 07:48:39;;;;;;;7.45;2.30;;;11.90;88.50;;;;;;5006038;28;112699;-52
2024/02/28 07:51:06;;;;;;;7.63;2.40;;;11.90;88.60;;;;;;5006077;28;112716;-52
2024/02/28 07:53:33;;;;;;;5.28;1.70;;;11.90;88.40;;;;;;5007295;28;112777;-52
2024/02/28 07:55:59;;;;;;;6.22;2.10;;;12.00;87.90;;;;;;5005885;28;113417;-52
2024/02/28 07:58:24;;;;;;;4.60;2.13;;;12.10;88.00;;;;;;5005935;28;112766;-52
2024/02/28 08:00:52;;;;;;;4.50;2.30;;;12.30;87.80;;;;;;5006706;28;112811;-52
2024/02/28 08:03:18;;;;;;;5.60;2.20;;;12.20;87.50;;;;;;5006822;28;112958;-52
2024/02/28 08:05:44;;;;;;;3.85;2.03;;;12.10;87.60;;;;;;5005645;28;113253;-52
2024/02/28 08:08:10;;;;;;;6.60;2.28;;;12.20;87.90;;;;;;5005447;28;112922;-52
2024/02/28 08:10:37;;;;;;;5.30;2.35;;;12.40;87.30;;;;;;5006591;28;112818;-52
2024/02/28 08:13:04;;;;;;;8.40;2.85;;;12.40;87.30;;;;;;5006897;28;113660;-53
2024/02/28 08:15:29;;;;;;;4.15;2.35;;;12.30;87.40;;;;;;5005614;28;113257;-52
2024/02/28 08:17:55;;;;;;;5.60;1.75;;;12.50;87.20;;;;;;5005721;28;112818;-52
2024/02/28 08:20:21;;;;;;;3.92;2.08;;;12.50;86.80;;;;;;5006148;28;115140;-52
2024/02/28 08:22:46;;;;;;;5.00;2.10;;;12.40;86.60;;;;;;5006679;28;112750;-52
2024/02/28 08:25:14;;;;;;;6.18;2.00;;;12.40;87.00;;;;;;5005480;28;114252;-52
2024/02/28 08:27:39;;;;;;;3.55;2.08;;;12.50;86.60;;;;;;5005315;28;113703;-52
2024/02/28 08:30:06;;;;;;;3.08;2.05;;;12.50;86.10;;;;;;4995290;28;112723;-52
2024/02/28 08:32:32;;;;;;;5.28;1.80;;;12.70;85.80;;;;;;5003264;28;113367;-52
2024/02/28 08:34:58;;;;;;;2.78;1.65;;;12.80;85.50;;;;;;5005501;28;113172;-52
2024/02/28 08:37:24;;;;;;;2.42;1.70;;;12.60;85.40;;;;;;5005010;28;114617;-52
2024/02/28 08:39:50;;;;;;;4.45;1.85;;;12.60;85.40;;;;;;5006516;28;113209;-52
2024/02/28 08:42:16;;;;;;;1.90;1.63;;;12.60;85.50;;;;;;5006221;28;112762;-52
2024/02/28 08:44:42;;;;;;;2.90;1.88;;;12.60;85.30;;;;;;5005341;28;113603;-52
2024/02/28 08:47:09;;;;;;;3.03;1.83;;;12.50;85.50;;;;;;5009213;28;113914;-52
2024/02/28 08:49:35;;;;;;;4.70;2.60;;;12.50;86.00;;;;;;5009684;28;112893;-52
2024/02/28 08:52:01;;;;;;;3.42;2.13;;;12.50;85.80;;;;;;5009758;28;113314;-52
2024/02/28 08:54:27;;;;;;;4.07;2.40;;;12.60;85.50;;;;;;5008673;28;113399;-52
2024/02/28 08:56:53;;;;;;;4.32;2.20;;;12.50;85.20;;;;;;5008640;28;113953;-52
2024/02/28 08:59:19;;;;;;;3.40;2.35;;;12.50;84.90;;;;;;5009645;28;112513;-52
2024/02/28 09:01:45;;;;;;;3.55;2.25;;;12.50;85.30;;;;;;5009608;28;113192;-52
2024/02/28 09:04:11;;;;;;;5.93;2.17;;;12.50;85.20;;;;;;5008353;28;114314;-52
2024/02/28 09:06:36;;;;;;;3.17;2.22;;;12.60;85.10;;;;;;5008262;28;112825;-51
2024/02/28 09:09:03;;;;;;;3.30;2.15;;;12.60;84.90;;;;;;5009416;28;112969;-52
2024/02/28 09:11:29;;;;;;;3.10;1.90;;;12.70;85.20;;;;;;5009327;28;112826;-52
2024/02/28 09:13:55;;;;;;;3.50;1.85;;;12.50;85.30;;;;;;5008432;28;114783;-52
2024/02/28 09:16:20;;;;;;;3.15;2.05;;;12.60;85.20;;;;;;5006802;28;115269;-52
2024/02/28 09:18:46;;;;;;;4.55;1.58;;;12.60;85.10;;;;;;5008942;28;113377;-52
2024/02/28 09:21:12;;;;;;;2.83;1.90;;;12.60;85.20;;;;;;5008963;28;113456;-52
2024/02/28 09:23:37;;;;;;;2.83;2.00;;;12.70;85.20;;;;;;5008071;28;114435;-52
2024/02/28 09:26:06;;;;;;;4.40;1.75;;;12.80;85.40;;;;;;4998570;28;113057;-52
2024/02/28 09:28:32;;;;;;;2.97;1.63;;;12.70;85.20;;;;;;5003483;28;112607;-52
2024/02/28 09:30:58;;;;;;;5.72;1.75;;;12.70;85.30;;;;;;4995189;28;112655;-52
2024/02/28 09:33:23;;;;;;;3.67;2.10;;;12.80;85.00;;;;;;5008203;28;113738;-52
2024/02/28 09:35:49;;;;;;;7.10;2.40;;;12.80;84.70;;;;;;5007962;28;112919;-52
2024/02/28 09:38:15;;;;;;;4.55;1.95;;;12.90;84.90;;;;;;5009163;28;112545;-53
2024/02/28 09:40:42;;;;;;;6.32;2.47;;;12.80;84.70;;;;;;5009057;28;113031;-52
2024/02/28 09:43:19;;;;;;;4.97;2.40;;;13.00;84.50;;;;;;5008023;28;114388;-52
2024/02/28 09:45:48;;;;;;;4.28;2.10;;;13.30;83.70;;;;;;5007750;28;112653;-52
2024/02/28 09:48:16;;;;;;;6.00;2.17;;;13.30;84.20;;;;;;4981646;28;112585;-52
2024/02/28 09:50:42;;;;;;;6.55;2.90;;;13.60;83.50;;;;;;5008691;28;113324;-52
2024/02/28 09:53:08;;;;;;;5.38;2.15;;;13.80;83.20;;;;;;5007785;28;113292;-52
2024/02/28 09:55:34;;;;;;;2.95;2.08;;;13.90;82.20;;;;;;5007687;28;113568;-53
2024/02/28 09:58:01;;;;;;;5.93;2.17;;;13.90;81.60;;;;;;5007807;28;112601;-52
2024/02/28 10:00:27;;;;;;;4.55;1.88;;;13.90;82.20;;;;;;5008667;28;112683;-52
2024/02/28 10:02:56;;;;;;;5.05;2.17;;;13.90;81.80;;;;;;5007601;28;114449;-52
2024/02/28 10:05:26;;;;;;;8.60;3.03;;;13.80;81.80;;;;;;5007625;28;113889;-52
2024/02/28 10:07:53;;;;;;;4.45;1.75;;;13.60;82.30;;;;;;5008349;28;112798;-53
2024/02/28 10:10:19;;;;;;;3.20;1.60;;;13.50;82.60;;;;;;5008340;28;112735;-52
2024/02/28 10:12:44;;;;;;;5.13;1.90;;;13.40;82.50;;;;;;5007402;28;113160;-52
2024/02/28 10:15:11;;;;;;;5.47;1.92;;;13.40;82.60;;;;;;5007365;28;112907;-52
2024/02/28 10:17:37;;;;;;;4.45;1.92;;;13.30;82.70;;;;;;5008046;28;113303;-52
2024/02/28 10:20:06;;;;;;;4.75;1.95;;;13.20;83.10;;;;;;5007060;28;113151;-52
2024/02/28 10:22:36;;;;;;;7.40;2.00;;;13.20;83.20;;;;;;5007291;28;114600;-52
2024/02/28 10:25:01;;;;;;;4.15;2.03;;;13.10;83.20;;;;;;5007586;28;113099;-52
2024/02/28 10:27:27;;;;;;;4.70;1.60;;;13.10;83.40;;;;;;5007772;28;114750;-52
2024/02/28 10:29:53;;;;;;;3.95;2.08;;;13.10;82.80;;;;;;4997695;28;112780;-52
2024/02/28 10:32:18;;;;;;;4.15;1.70;;;13.10;82.80;;;;;;5002479;28;113227;-52
2024/02/28 10:34:45;;;;;;;3.92;1.75;;;13.30;83.00;;;;;;5007089;28;112697;-52
2024/02/28 10:37:12;;;;;;;5.28;1.75;;;13.30;82.80;;;;;;5007867;28;112838;-53
2024/02/28 10:39:38;;;;;;;3.90;1.95;;;13.40;82.50;;;;;;5006586;28;113182;-52
2024/02/28 10:42:05;;;;;;;3.17;1.60;;;13.60;81.50;;;;;;5007088;28;113185;-53
2024/02/28 10:44:34;;;;;;;3.83;1.50;;;13.90;81.70;;;;;;5006774;28;112792;-52
2024/02/28 10:47:02;;;;;;;2.65;1.40;;;13.80;81.50;;;;;;5008060;28;112670;-53
2024/02/28 10:49:27;;;;;;;2.58;1.40;;;13.90;80.70;;;;;;5008306;28;113088;-52
2024/02/28 10:51:56;;;;;;;3.45;1.58;;;14.10;80.30;;;;;;5007022;28;113481;-52
2024/02/28 10:54:25;;;;;;;2.92;1.35;;;14.10;79.70;;;;;;5006706;28;112923;-53
2024/02/28 10:56:53;;;;;;;3.60;1.55;;;14.10;79.20;;;;;;5007498;28;112458;-52
2024/02/28 10:59:21;;;;;;;3.63;1.30;;;14.40;78.70;;;;;;5007670;28;112773;-53
2024/02/28 11:01:46;;;;;;;4.60;1.55;;;14.70;78.30;;;;;;5006538;28;113525;-52
2024/02/28 11:04:15;;;;;;;3.30;1.55;;;14.70;77.80;;;;;;5006689;28;112849;-53
2024/02/28 11:06:51;;;;;;;4.13;1.25;;;14.50;77.40;;;;;;5005919;28;113013;-53
2024/02/28 11:09:27;;;;;;;3.50;1.50;;;14.50;76.70;;;;;;5006915;28;112591;-53
2024/02/28 11:11:54;;;;;;;3.58;1.33;;;14.50;77.90;;;;;;5006695;28;113361;-52
2024/02/28 11:14:24;;;;;;;3.40;1.30;;;14.50;77.70;;;;;;5006390;28;114104;-53
2024/02/28 11:17:00;;;;;;;2.53;1.35;;;14.60;77.30;;;;;;5007287;28;112604;-52
2024/02/28 11:19:30;;;;;;;3.83;1.50;;;14.50;77.50;;;;;;5007449;28;112786;-52
2024/02/28 11:21:56;;;;;;;3.28;1.50;;;14.40;77.90;;;;;;5006184;28;113216;-53
2024/02/28 11:24:32;;;;;;;4.53;1.35;;;14.30;78.20;;;;;;5006263;28;112605;-53
2024/02/28 11:26:58;;;;;;;4.43;1.63;;;14.30;78.10;;;;;;5007149;28;112919;-53
2024/02/28 11:29:30;;;;;;;4.95;1.90;;;14.40;78.30;;;;;;5002250;28;112747;-53
2024/02/28 11:31:56;;;;;;;;;;;14.40;78.00;;;;;;4998532;28;113424;-53
2024/02/28 11:34:22;;;;;;;6.40;1.90;;;14.60;77.10;;;;;;5007435;28;112887;-53
2024/02/28 11:36:49;;;;;;;5.95;1.55;;;14.70;76.70;;;;;;5007210;28;112601;-53
2024/02/28 11:39:15;;;;;;;3.95;1.30;;;14.40;76.70;;;;;;5007185;28;113051;-53
2024/02/28 11:41:41;;;;;;;3.65;1.60;;;14.60;77.00;;;;;;5006270;28;113392;-53
2024/02/28 11:44:07;;;;;;;5.28;1.75;;;14.60;76.50;;;;;;5005994;28;112908;-53
2024/02/28 11:46:33;;;;;;;7.25;1.88;;;14.80;76.10;;;;;;5007774;28;113158;-53
2024/02/28 11:49:01;;;;;;;5.10;1.50;;;14.90;76.10;;;;;;5007105;28;112719;-53
2024/02/28 11:51:26;;;;;;;4.30;1.92;;;14.90;76.00;;;;;;5005641;28;113345;-52
2024/02/28 11:53:52;;;;;;;4.28;1.40;;;14.90;76.10;;;;;;5005986;28;112798;-53
2024/02/28 11:56:21;;;;;;;5.95;2.03;;;14.90;75.10;;;;;;5006803;28;112806;-53
2024/02/28 11:58:51;;;;;;;8.00;1.88;;;14.80;75.00;;;;;;5006854;28;113118;-53
2024/02/28 12:01:16;;;;;;;4.10;1.63;;;14.80;75.10;;;;;;5005490;28;113980;-53
2024/02/28 12:03:46;;;;;;;4.55;1.60;;;14.90;75.20;;;;;;5005739;28;112813;-53
2024/02/28 12:06:11;;;;;;;5.07;1.30;;;14.90;75.00;;;;;;5006473;28;112537;-53
2024/02/28 12:08:37;;;;;;;3.22;1.30;;;15.10;75.00;;;;;;5006792;28;112705;-53
2024/02/28 12:11:07;;;;;;;3.97;1.27;;;14.90;74.90;;;;;;5005965;28;113385;-53
2024/02/28 12:13:33;;;;;;;2.80;1.30;;;14.90;75.00;;;;;;5005357;28;112700;-53
2024/02/28 12:16:00;;;;;;;4.28;1.35;;;14.80;75.20;;;;;;5006597;28;112699;-53
2024/02/28 12:18:28;;;;;;;3.42;1.30;;;14.60;75.40;;;;;;5006468;28;112885;-52
2024/02/28 12:20:54;;;;;;;6.05;1.52;;;14.50;75.70;;;;;;5007947;28;113287;-53
2024/02/28 12:23:19;;;;;;;3.78;1.20;;;14.70;75.50;;;;;;5009557;28;113096;-53
2024/02/28 12:25:45;;;;;;;2.88;1.25;;;14.80;74.80;;;;;;5008540;28;113083;-53
2024/02/28 12:28:11;;;;;;;3.03;1.20;;;14.70;75.30;;;;;;5010027;28;113048;-53
2024/02/28 12:30:44;;;;;;;4.30;1.45;;;14.80;75.10;;;;;;4995168;28;113335;-53